sensor_id;sensor_type;location;lat;lon;timestamp;P1;durP1;ratioP1;P2;durP2;ratioP2
4957;SDS011;2494;51.872;9.688;2023-01-09T00:01:21;3.20;;;2.93;;
4957;SDS011;2494;51.872;9.688;2023-01-09T00:04:06;2.80;;;2.57;;
4957;SDS011;2494;51.872;9.688;2023-01-09T00:06:52;3.20;;;2.40;;
4957;SDS011;2494;51.872;9.688;2023-01-09T00:09:39;2.77;;;2.57;;
4957;SDS011;2494;51.872;9.688;2023-01-09T00:12:24;2.60;;;2.40;;
4957;SDS011;2494;51.872;9.688;2023-01-09T00:15:10;2.70;;;2.30;;
4957;SDS011;2494;51.872;9.688;2023-01-09T00:17:56;2.57;;;2.20;;
4957;SDS011;2494;51.872;9.688;2023-01-09T00:20:41;2.10;;;2.00;;
4957;SDS011;2494;51.872;9.688;2023-01-09T00:23:26;2.27;;;2.17;;
4957;SDS011;2494;51.872;9.688;2023-01-09T00:26:13;2.93;;;2.33;;
4957;SDS011;2494;51.872;9.688;2023-01-09T00:28:59;2.20;;;2.00;;
4957;SDS011;2494;51.872;9.688;2023-01-09T00:31:44;2.60;;;2.40;;
4957;SDS011;2494;51.872;9.688;2023-01-09T00:34:30;3.13;;;2.57;;
4957;SDS011;2494;51.872;9.688;2023-01-09T00:37:15;3.07;;;2.27;;
4957;SDS011;2494;51.872;9.688;2023-01-09T00:40:00;2.80;;;2.33;;
4957;SDS011;2494;51.872;9.688;2023-01-09T00:42:50;4.50;;;2.37;;
4957;SDS011;2494;51.872;9.688;2023-01-09T00:45:38;2.20;;;2.00;;
4957;SDS011;2494;51.872;9.688;2023-01-09T00:48:23;2.40;;;2.20;;
4957;SDS011;2494;51.872;9.688;2023-01-09T00:51:11;2.97;;;2.27;;
4957;SDS011;2494;51.872;9.688;2023-01-09T00:53:57;2.00;;;1.90;;
4957;SDS011;2494;51.872;9.688;2023-01-09T00:56:42;1.97;;;1.87;;
4957;SDS011;2494;51.872;9.688;2023-01-09T00:59:29;2.53;;;2.00;;
4957;SDS011;2494;51.872;9.688;2023-01-09T01:02:14;7.73;;;2.43;;
4957;SDS011;2494;51.872;9.688;2023-01-09T01:04:59;2.20;;;2.00;;
4957;SDS011;2494;51.872;9.688;2023-01-09T01:08:08;2.20;;;2.00;;
4957;SDS011;2494;51.872;9.688;2023-01-09T01:10:53;2.07;;;1.90;;
4957;SDS011;2494;51.872;9.688;2023-01-09T01:13:40;2.63;;;2.03;;
4957;SDS011;2494;51.872;9.688;2023-01-09T01:16:26;1.80;;;1.70;;
4957;SDS011;2494;51.872;9.688;2023-01-09T01:19:11;2.30;;;2.10;;
4957;SDS011;2494;51.872;9.688;2023-01-09T01:21:57;2.37;;;2.00;;
4957;SDS011;2494;51.872;9.688;2023-01-09T01:24:42;2.30;;;2.13;;
4957;SDS011;2494;51.872;9.688;2023-01-09T01:27:27;2.73;;;2.53;;
4957;SDS011;2494;51.872;9.688;2023-01-09T01:30:13;3.70;;;3.23;;
4957;SDS011;2494;51.872;9.688;2023-01-09T01:32:59;2.47;;;2.23;;
4957;SDS011;2494;51.872;9.688;2023-01-09T01:35:45;6.33;;;2.63;;
4957;SDS011;2494;51.872;9.688;2023-01-09T01:38:30;2.27;;;2.17;;
4957;SDS011;2494;51.872;9.688;2023-01-09T01:41:15;3.83;;;2.27;;
4957;SDS011;2494;51.872;9.688;2023-01-09T01:47:12;2.60;;;2.40;;
4957;SDS011;2494;51.872;9.688;2023-01-09T01:49:59;4.13;;;2.87;;
4957;SDS011;2494;51.872;9.688;2023-01-09T01:52:46;2.67;;;2.47;;
4957;SDS011;2494;51.872;9.688;2023-01-09T01:55:32;3.50;;;3.20;;
4957;SDS011;2494;51.872;9.688;2023-01-09T01:58:19;2.63;;;2.43;;
4957;SDS011;2494;51.872;9.688;2023-01-09T02:01:04;3.13;;;2.80;;
4957;SDS011;2494;51.872;9.688;2023-01-09T02:03:50;3.47;;;3.27;;
4957;SDS011;2494;51.872;9.688;2023-01-09T02:06:38;4.47;;;4.17;;
4957;SDS011;2494;51.872;9.688;2023-01-09T02:09:23;4.33;;;3.93;;
4957;SDS011;2494;51.872;9.688;2023-01-09T02:12:14;4.73;;;4.33;;
4957;SDS011;2494;51.872;9.688;2023-01-09T02:15:01;4.90;;;4.47;;
4957;SDS011;2494;51.872;9.688;2023-01-09T02:18:10;4.77;;;4.37;;
4957;SDS011;2494;51.872;9.688;2023-01-09T02:20:59;5.00;;;4.67;;
4957;SDS011;2494;51.872;9.688;2023-01-09T02:24:04;6.43;;;4.63;;
4957;SDS011;2494;51.872;9.688;2023-01-09T02:33:11;4.10;;;3.80;;
4957;SDS011;2494;51.872;9.688;2023-01-09T02:36:03;5.17;;;4.67;;
4957;SDS011;2494;51.872;9.688;2023-01-09T02:38:53;4.50;;;4.10;;
4957;SDS011;2494;51.872;9.688;2023-01-09T02:41:44;4.53;;;4.23;;
4957;SDS011;2494;51.872;9.688;2023-01-09T02:44:31;4.30;;;4.00;;
4957;SDS011;2494;51.872;9.688;2023-01-09T02:47:34;4.47;;;4.17;;
4957;SDS011;2494;51.872;9.688;2023-01-09T02:50:22;4.40;;;4.10;;
4957;SDS011;2494;51.872;9.688;2023-01-09T02:53:12;5.60;;;5.30;;
4957;SDS011;2494;51.872;9.688;2023-01-09T02:56:10;5.97;;;5.50;;
4957;SDS011;2494;51.872;9.688;2023-01-09T02:59:05;5.00;;;4.60;;
4957;SDS011;2494;51.872;9.688;2023-01-09T03:02:02;4.47;;;4.13;;
4957;SDS011;2494;51.872;9.688;2023-01-09T03:04:54;4.70;;;4.40;;
4957;SDS011;2494;51.872;9.688;2023-01-09T03:07:42;5.10;;;4.70;;
4957;SDS011;2494;51.872;9.688;2023-01-09T03:10:32;6.60;;;5.23;;
4957;SDS011;2494;51.872;9.688;2023-01-09T03:13:20;5.67;;;5.20;;
4957;SDS011;2494;51.872;9.688;2023-01-09T03:16:06;5.30;;;4.50;;
4957;SDS011;2494;51.872;9.688;2023-01-09T03:18:53;5.93;;;5.53;;
4957;SDS011;2494;51.872;9.688;2023-01-09T03:21:39;6.00;;;5.50;;
4957;SDS011;2494;51.872;9.688;2023-01-09T03:24:27;5.00;;;4.70;;
4957;SDS011;2494;51.872;9.688;2023-01-09T03:27:12;5.20;;;4.90;;
4957;SDS011;2494;51.872;9.688;2023-01-09T03:29:58;4.90;;;4.60;;
4957;SDS011;2494;51.872;9.688;2023-01-09T03:32:43;4.77;;;4.40;;
4957;SDS011;2494;51.872;9.688;2023-01-09T03:35:28;4.87;;;4.47;;
4957;SDS011;2494;51.872;9.688;2023-01-09T03:38:13;5.07;;;4.67;;
4957;SDS011;2494;51.872;9.688;2023-01-09T03:40:59;5.47;;;5.17;;
4957;SDS011;2494;51.872;9.688;2023-01-09T03:43:44;5.47;;;5.07;;
4957;SDS011;2494;51.872;9.688;2023-01-09T03:46:31;4.90;;;4.30;;
4957;SDS011;2494;51.872;9.688;2023-01-09T03:49:16;3.70;;;3.40;;
4957;SDS011;2494;51.872;9.688;2023-01-09T03:52:01;4.93;;;4.13;;
4957;SDS011;2494;51.872;9.688;2023-01-09T03:54:47;4.30;;;4.03;;
4957;SDS011;2494;51.872;9.688;2023-01-09T03:57:33;3.57;;;2.97;;
4957;SDS011;2494;51.872;9.688;2023-01-09T04:00:19;2.80;;;2.60;;
4957;SDS011;2494;51.872;9.688;2023-01-09T04:03:04;1.57;;;1.47;;
4957;SDS011;2494;51.872;9.688;2023-01-09T04:05:49;1.20;;;1.10;;
4957;SDS011;2494;51.872;9.688;2023-01-09T04:08:34;1.10;;;1.00;;
4957;SDS011;2494;51.872;9.688;2023-01-09T04:11:20;1.00;;;0.80;;
4957;SDS011;2494;51.872;9.688;2023-01-09T04:14:07;1.30;;;0.70;;
4957;SDS011;2494;51.872;9.688;2023-01-09T04:16:52;2.20;;;0.80;;
4957;SDS011;2494;51.872;9.688;2023-01-09T04:19:37;1.10;;;0.70;;
4957;SDS011;2494;51.872;9.688;2023-01-09T04:22:22;1.30;;;0.80;;
4957;SDS011;2494;51.872;9.688;2023-01-09T04:25:08;0.77;;;0.77;;
4957;SDS011;2494;51.872;9.688;2023-01-09T04:27:54;1.50;;;0.80;;
4957;SDS011;2494;51.872;9.688;2023-01-09T04:30:40;0.80;;;0.80;;
4957;SDS011;2494;51.872;9.688;2023-01-09T04:33:25;1.00;;;0.90;;
4957;SDS011;2494;51.872;9.688;2023-01-09T04:36:11;0.90;;;0.80;;
4957;SDS011;2494;51.872;9.688;2023-01-09T04:38:56;0.90;;;0.80;;
4957;SDS011;2494;51.872;9.688;2023-01-09T04:41:41;0.87;;;0.80;;
4957;SDS011;2494;51.872;9.688;2023-01-09T04:44:33;0.70;;;0.70;;
4957;SDS011;2494;51.872;9.688;2023-01-09T04:47:20;0.63;;;0.63;;
4957;SDS011;2494;51.872;9.688;2023-01-09T04:50:07;1.00;;;0.80;;
4957;SDS011;2494;51.872;9.688;2023-01-09T04:52:52;0.73;;;0.70;;
4957;SDS011;2494;51.872;9.688;2023-01-09T04:55:38;0.70;;;0.70;;
4957;SDS011;2494;51.872;9.688;2023-01-09T04:58:23;3.00;;;1.00;;
4957;SDS011;2494;51.872;9.688;2023-01-09T05:01:09;1.03;;;0.93;;
4957;SDS011;2494;51.872;9.688;2023-01-09T05:03:56;0.90;;;0.80;;
4957;SDS011;2494;51.872;9.688;2023-01-09T05:06:41;0.80;;;0.70;;
4957;SDS011;2494;51.872;9.688;2023-01-09T05:09:26;0.90;;;0.90;;
4957;SDS011;2494;51.872;9.688;2023-01-09T05:12:11;1.10;;;1.00;;
4957;SDS011;2494;51.872;9.688;2023-01-09T05:14:57;1.40;;;1.00;;
4957;SDS011;2494;51.872;9.688;2023-01-09T05:17:42;1.23;;;1.10;;
4957;SDS011;2494;51.872;9.688;2023-01-09T05:20:28;1.53;;;1.13;;
4957;SDS011;2494;51.872;9.688;2023-01-09T05:23:13;2.30;;;1.30;;
4957;SDS011;2494;51.872;9.688;2023-01-09T05:25:58;1.10;;;1.00;;
4957;SDS011;2494;51.872;9.688;2023-01-09T05:28:44;1.37;;;1.27;;
4957;SDS011;2494;51.872;9.688;2023-01-09T05:31:29;2.67;;;1.30;;
4957;SDS011;2494;51.872;9.688;2023-01-09T05:34:14;2.10;;;1.30;;
4957;SDS011;2494;51.872;9.688;2023-01-09T05:37:01;1.80;;;1.40;;
4957;SDS011;2494;51.872;9.688;2023-01-09T05:39:46;1.53;;;1.43;;
4957;SDS011;2494;51.872;9.688;2023-01-09T05:42:31;1.40;;;1.30;;
4957;SDS011;2494;51.872;9.688;2023-01-09T05:45:16;6.00;;;2.27;;
4957;SDS011;2494;51.872;9.688;2023-01-09T05:48:02;1.60;;;1.50;;
4957;SDS011;2494;51.872;9.688;2023-01-09T05:50:48;1.57;;;1.47;;
4957;SDS011;2494;51.872;9.688;2023-01-09T05:53:35;1.40;;;1.30;;
4957;SDS011;2494;51.872;9.688;2023-01-09T05:56:20;1.73;;;1.63;;
4957;SDS011;2494;51.872;9.688;2023-01-09T05:59:05;1.70;;;1.60;;
4957;SDS011;2494;51.872;9.688;2023-01-09T06:01:50;1.50;;;1.40;;
4957;SDS011;2494;51.872;9.688;2023-01-09T06:04:36;2.90;;;1.67;;
4957;SDS011;2494;51.872;9.688;2023-01-09T06:07:22;11.90;;;1.80;;
4957;SDS011;2494;51.872;9.688;2023-01-09T06:10:10;1.60;;;1.50;;
4957;SDS011;2494;51.872;9.688;2023-01-09T06:12:56;4.43;;;1.60;;
4957;SDS011;2494;51.872;9.688;2023-01-09T06:15:41;1.73;;;1.50;;
4957;SDS011;2494;51.872;9.688;2023-01-09T06:18:27;2.10;;;1.90;;
4957;SDS011;2494;51.872;9.688;2023-01-09T06:21:12;1.80;;;1.70;;
4957;SDS011;2494;51.872;9.688;2023-01-09T06:23:58;5.67;;;1.70;;
4957;SDS011;2494;51.872;9.688;2023-01-09T06:26:46;2.00;;;1.90;;
4957;SDS011;2494;51.872;9.688;2023-01-09T06:29:31;3.37;;;1.70;;
4957;SDS011;2494;51.872;9.688;2023-01-09T06:32:17;2.30;;;2.10;;
4957;SDS011;2494;51.872;9.688;2023-01-09T06:35:02;2.33;;;2.13;;
4957;SDS011;2494;51.872;9.688;2023-01-09T06:37:48;2.70;;;1.97;;
4957;SDS011;2494;51.872;9.688;2023-01-09T06:40:33;3.43;;;2.20;;
4957;SDS011;2494;51.872;9.688;2023-01-09T06:43:20;2.50;;;2.30;;
4957;SDS011;2494;51.872;9.688;2023-01-09T06:46:05;3.87;;;2.33;;
4957;SDS011;2494;51.872;9.688;2023-01-09T06:48:50;2.30;;;2.07;;
4957;SDS011;2494;51.872;9.688;2023-01-09T06:51:36;5.40;;;2.43;;
4957;SDS011;2494;51.872;9.688;2023-01-09T06:54:21;2.70;;;2.00;;
4957;SDS011;2494;51.872;9.688;2023-01-09T06:57:07;2.37;;;2.17;;
4957;SDS011;2494;51.872;9.688;2023-01-09T06:59:56;3.63;;;2.70;;
4957;SDS011;2494;51.872;9.688;2023-01-09T07:02:41;4.10;;;1.97;;
4957;SDS011;2494;51.872;9.688;2023-01-09T07:05:26;4.13;;;2.40;;
4957;SDS011;2494;51.872;9.688;2023-01-09T07:08:12;4.60;;;2.13;;
4957;SDS011;2494;51.872;9.688;2023-01-09T07:10:57;9.60;;;4.73;;
4957;SDS011;2494;51.872;9.688;2023-01-09T07:13:42;8.00;;;6.90;;
4957;SDS011;2494;51.872;9.688;2023-01-09T07:16:29;6.73;;;5.00;;
4957;SDS011;2494;51.872;9.688;2023-01-09T07:19:14;4.40;;;3.20;;
4957;SDS011;2494;51.872;9.688;2023-01-09T07:22:00;2.43;;;2.23;;
4957;SDS011;2494;51.872;9.688;2023-01-09T07:24:45;4.67;;;4.20;;
4957;SDS011;2494;51.872;9.688;2023-01-09T07:27:30;3.70;;;2.97;;
4957;SDS011;2494;51.872;9.688;2023-01-09T07:30:16;2.73;;;2.50;;
4957;SDS011;2494;51.872;9.688;2023-01-09T07:33:02;4.33;;;2.50;;
4957;SDS011;2494;51.872;9.688;2023-01-09T07:35:49;3.80;;;3.50;;
4957;SDS011;2494;51.872;9.688;2023-01-09T07:38:34;17.00;;;13.30;;
4957;SDS011;2494;51.872;9.688;2023-01-09T07:41:19;8.23;;;6.87;;
4957;SDS011;2494;51.872;9.688;2023-01-09T07:44:04;6.30;;;3.83;;
4957;SDS011;2494;51.872;9.688;2023-01-09T07:46:50;7.80;;;5.70;;
4957;SDS011;2494;51.872;9.688;2023-01-09T07:49:38;22.10;;;13.57;;
4957;SDS011;2494;51.872;9.688;2023-01-09T07:52:23;3.60;;;3.37;;
4957;SDS011;2494;51.872;9.688;2023-01-09T07:55:11;5.03;;;4.67;;
4957;SDS011;2494;51.872;9.688;2023-01-09T07:57:56;2.83;;;2.47;;
4957;SDS011;2494;51.872;9.688;2023-01-09T08:00:42;3.07;;;2.00;;
4957;SDS011;2494;51.872;9.688;2023-01-09T08:03:27;5.83;;;2.67;;
4957;SDS011;2494;51.872;9.688;2023-01-09T08:06:13;2.03;;;1.93;;
4957;SDS011;2494;51.872;9.688;2023-01-09T08:08:58;2.13;;;1.93;;
4957;SDS011;2494;51.872;9.688;2023-01-09T08:11:44;4.23;;;2.90;;
4957;SDS011;2494;51.872;9.688;2023-01-09T08:14:28;8.90;;;2.50;;
4957;SDS011;2494;51.872;9.688;2023-01-09T08:17:14;3.07;;;2.87;;
4957;SDS011;2494;51.872;9.688;2023-01-09T08:19:59;2.03;;;1.83;;
4957;SDS011;2494;51.872;9.688;2023-01-09T08:22:46;4.00;;;2.50;;
4957;SDS011;2494;51.872;9.688;2023-01-09T08:25:33;1.70;;;1.60;;
4957;SDS011;2494;51.872;9.688;2023-01-09T08:28:18;2.53;;;1.70;;
4957;SDS011;2494;51.872;9.688;2023-01-09T08:31:04;2.03;;;1.53;;
4957;SDS011;2494;51.872;9.688;2023-01-09T08:33:49;4.23;;;1.97;;
4957;SDS011;2494;51.872;9.688;2023-01-09T08:36:35;2.00;;;1.50;;
4957;SDS011;2494;51.872;9.688;2023-01-09T08:39:22;1.67;;;1.47;;
4957;SDS011;2494;51.872;9.688;2023-01-09T08:42:07;1.63;;;1.27;;
4957;SDS011;2494;51.872;9.688;2023-01-09T08:45:10;2.17;;;1.20;;
4957;SDS011;2494;51.872;9.688;2023-01-09T08:48:13;3.80;;;2.00;;
4957;SDS011;2494;51.872;9.688;2023-01-09T08:50:59;2.50;;;1.30;;
4957;SDS011;2494;51.872;9.688;2023-01-09T08:53:45;2.80;;;1.80;;
4957;SDS011;2494;51.872;9.688;2023-01-09T08:56:31;2.70;;;1.13;;
4957;SDS011;2494;51.872;9.688;2023-01-09T08:59:16;1.47;;;1.27;;
4957;SDS011;2494;51.872;9.688;2023-01-09T09:02:01;4.50;;;1.50;;
4957;SDS011;2494;51.872;9.688;2023-01-09T09:04:46;1.60;;;1.20;;
4957;SDS011;2494;51.872;9.688;2023-01-09T09:07:35;3.90;;;1.10;;
4957;SDS011;2494;51.872;9.688;2023-01-09T09:10:21;8.80;;;1.47;;
4957;SDS011;2494;51.872;9.688;2023-01-09T09:13:07;2.90;;;1.40;;
4957;SDS011;2494;51.872;9.688;2023-01-09T09:15:52;1.83;;;1.17;;
4957;SDS011;2494;51.872;9.688;2023-01-09T09:18:38;4.30;;;1.00;;
4957;SDS011;2494;51.872;9.688;2023-01-09T09:21:23;1.30;;;1.10;;
4957;SDS011;2494;51.872;9.688;2023-01-09T09:24:08;4.73;;;1.43;;
4957;SDS011;2494;51.872;9.688;2023-01-09T09:26:53;5.50;;;1.13;;
4957;SDS011;2494;51.872;9.688;2023-01-09T09:29:39;0.90;;;0.80;;
4957;SDS011;2494;51.872;9.688;2023-01-09T09:32:25;5.43;;;1.10;;
4957;SDS011;2494;51.872;9.688;2023-01-09T09:35:10;5.40;;;1.33;;
4957;SDS011;2494;51.872;9.688;2023-01-09T09:37:56;1.00;;;0.83;;
4957;SDS011;2494;51.872;9.688;2023-01-09T09:40:46;1.70;;;1.50;;
4957;SDS011;2494;51.872;9.688;2023-01-09T09:46:52;1.30;;;1.00;;
4957;SDS011;2494;51.872;9.688;2023-01-09T09:49:43;5.10;;;4.70;;
4957;SDS011;2494;51.872;9.688;2023-01-09T09:52:35;3.17;;;0.90;;
4957;SDS011;2494;51.872;9.688;2023-01-09T09:55:24;1.57;;;1.07;;
4957;SDS011;2494;51.872;9.688;2023-01-09T09:58:12;3.40;;;1.20;;
4957;SDS011;2494;51.872;9.688;2023-01-09T10:01:00;1.13;;;0.80;;
4957;SDS011;2494;51.872;9.688;2023-01-09T10:03:48;1.00;;;0.80;;
4957;SDS011;2494;51.872;9.688;2023-01-09T10:06:34;1.50;;;0.70;;
4957;SDS011;2494;51.872;9.688;2023-01-09T10:09:24;1.27;;;0.63;;
4957;SDS011;2494;51.872;9.688;2023-01-09T10:12:16;0.80;;;0.63;;
4957;SDS011;2494;51.872;9.688;2023-01-09T10:15:08;2.23;;;0.67;;
4957;SDS011;2494;51.872;9.688;2023-01-09T10:18:04;1.13;;;0.70;;
4957;SDS011;2494;51.872;9.688;2023-01-09T10:20:56;1.83;;;0.80;;
4957;SDS011;2494;51.872;9.688;2023-01-09T10:23:48;2.80;;;0.90;;
4957;SDS011;2494;51.872;9.688;2023-01-09T10:26:40;4.03;;;0.70;;
4957;SDS011;2494;51.872;9.688;2023-01-09T10:29:31;1.93;;;0.90;;
4957;SDS011;2494;51.872;9.688;2023-01-09T10:32:30;1.23;;;0.70;;
4957;SDS011;2494;51.872;9.688;2023-01-09T10:35:22;1.53;;;0.67;;
4957;SDS011;2494;51.872;9.688;2023-01-09T10:38:13;0.60;;;0.60;;
4957;SDS011;2494;51.872;9.688;2023-01-09T10:41:01;1.33;;;1.00;;
4957;SDS011;2494;51.872;9.688;2023-01-09T10:43:50;1.10;;;0.60;;
4957;SDS011;2494;51.872;9.688;2023-01-09T10:46:37;1.30;;;0.60;;
4957;SDS011;2494;51.872;9.688;2023-01-09T10:49:25;1.80;;;0.90;;
4957;SDS011;2494;51.872;9.688;2023-01-09T10:52:11;0.77;;;0.60;;
4957;SDS011;2494;51.872;9.688;2023-01-09T10:55:01;2.50;;;0.50;;
4957;SDS011;2494;51.872;9.688;2023-01-09T10:57:48;0.97;;;0.70;;
4957;SDS011;2494;51.872;9.688;2023-01-09T11:00:35;0.77;;;0.77;;
4957;SDS011;2494;51.872;9.688;2023-01-09T11:03:21;1.70;;;0.70;;
4957;SDS011;2494;51.872;9.688;2023-01-09T11:06:16;4.20;;;0.90;;
4957;SDS011;2494;51.872;9.688;2023-01-09T11:09:02;1.73;;;0.70;;
4957;SDS011;2494;51.872;9.688;2023-01-09T11:11:50;0.70;;;0.60;;
4957;SDS011;2494;51.872;9.688;2023-01-09T11:14:35;0.83;;;0.70;;
4957;SDS011;2494;51.872;9.688;2023-01-09T11:17:20;1.07;;;0.60;;
4957;SDS011;2494;51.872;9.688;2023-01-09T11:20:12;1.27;;;0.53;;
4957;SDS011;2494;51.872;9.688;2023-01-09T11:22:59;3.97;;;0.70;;
4957;SDS011;2494;51.872;9.688;2023-01-09T11:25:50;0.80;;;0.70;;
4957;SDS011;2494;51.872;9.688;2023-01-09T11:28:37;2.40;;;0.60;;
4957;SDS011;2494;51.872;9.688;2023-01-09T11:31:22;1.57;;;0.80;;
4957;SDS011;2494;51.872;9.688;2023-01-09T11:34:13;1.57;;;0.60;;
4957;SDS011;2494;51.872;9.688;2023-01-09T11:37:01;0.70;;;0.60;;
4957;SDS011;2494;51.872;9.688;2023-01-09T11:39:46;5.10;;;0.73;;
4957;SDS011;2494;51.872;9.688;2023-01-09T11:42:31;2.70;;;0.80;;
4957;SDS011;2494;51.872;9.688;2023-01-09T11:45:39;0.80;;;0.77;;
4957;SDS011;2494;51.872;9.688;2023-01-09T11:48:33;1.57;;;0.80;;
4957;SDS011;2494;51.872;9.688;2023-01-09T11:51:19;1.53;;;1.43;;
4957;SDS011;2494;51.872;9.688;2023-01-09T11:54:06;0.97;;;0.60;;
4957;SDS011;2494;51.872;9.688;2023-01-09T11:56:56;3.33;;;1.00;;
4957;SDS011;2494;51.872;9.688;2023-01-09T11:59:42;1.10;;;0.80;;
4957;SDS011;2494;51.872;9.688;2023-01-09T12:02:35;1.67;;;0.80;;
4957;SDS011;2494;51.872;9.688;2023-01-09T12:05:27;0.67;;;0.60;;
4957;SDS011;2494;51.872;9.688;2023-01-09T12:08:16;1.00;;;0.90;;
4957;SDS011;2494;51.872;9.688;2023-01-09T12:11:12;0.80;;;0.70;;
4957;SDS011;2494;51.872;9.688;2023-01-09T12:14:11;1.93;;;0.70;;
4957;SDS011;2494;51.872;9.688;2023-01-09T12:17:03;0.87;;;0.87;;
4957;SDS011;2494;51.872;9.688;2023-01-09T12:19:58;1.13;;;0.70;;
4957;SDS011;2494;51.872;9.688;2023-01-09T12:22:48;4.67;;;0.77;;
4957;SDS011;2494;51.872;9.688;2023-01-09T12:25:43;1.60;;;0.60;;
4957;SDS011;2494;51.872;9.688;2023-01-09T12:31:41;2.97;;;0.73;;
4957;SDS011;2494;51.872;9.688;2023-01-09T12:34:35;0.70;;;0.60;;
4957;SDS011;2494;51.872;9.688;2023-01-09T12:40:33;1.00;;;0.70;;
4957;SDS011;2494;51.872;9.688;2023-01-09T12:43:24;3.67;;;3.07;;
4957;SDS011;2494;51.872;9.688;2023-01-09T12:46:12;3.73;;;0.70;;
4957;SDS011;2494;51.872;9.688;2023-01-09T12:49:15;1.60;;;1.10;;
4957;SDS011;2494;51.872;9.688;2023-01-09T12:52:07;0.70;;;0.60;;
4957;SDS011;2494;51.872;9.688;2023-01-09T12:54:54;1.50;;;0.97;;
4957;SDS011;2494;51.872;9.688;2023-01-09T12:57:42;1.33;;;0.70;;
4957;SDS011;2494;51.872;9.688;2023-01-09T13:00:29;3.10;;;1.97;;
4957;SDS011;2494;51.872;9.688;2023-01-09T13:03:17;1.53;;;1.43;;
4957;SDS011;2494;51.872;9.688;2023-01-09T13:06:04;1.80;;;0.70;;
4957;SDS011;2494;51.872;9.688;2023-01-09T13:08:51;0.80;;;0.70;;
4957;SDS011;2494;51.872;9.688;2023-01-09T13:11:42;1.57;;;0.90;;
4957;SDS011;2494;51.872;9.688;2023-01-09T13:14:37;0.87;;;0.67;;
4957;SDS011;2494;51.872;9.688;2023-01-09T13:17:24;1.77;;;0.70;;
4957;SDS011;2494;51.872;9.688;2023-01-09T13:20:15;2.70;;;0.90;;
4957;SDS011;2494;51.872;9.688;2023-01-09T13:23:01;1.27;;;0.80;;
4957;SDS011;2494;51.872;9.688;2023-01-09T13:25:48;1.87;;;0.80;;
4957;SDS011;2494;51.872;9.688;2023-01-09T13:28:35;0.70;;;0.70;;
4957;SDS011;2494;51.872;9.688;2023-01-09T13:31:29;0.97;;;0.87;;
4957;SDS011;2494;51.872;9.688;2023-01-09T13:34:16;0.77;;;0.63;;
4957;SDS011;2494;51.872;9.688;2023-01-09T13:37:03;1.83;;;0.70;;
4957;SDS011;2494;51.872;9.688;2023-01-09T13:39:53;0.90;;;0.80;;
4957;SDS011;2494;51.872;9.688;2023-01-09T13:42:39;0.90;;;0.60;;
4957;SDS011;2494;51.872;9.688;2023-01-09T13:45:30;2.03;;;0.73;;
4957;SDS011;2494;51.872;9.688;2023-01-09T13:51:46;0.90;;;0.80;;
4957;SDS011;2494;51.872;9.688;2023-01-09T14:01:09;1.37;;;0.93;;
4957;SDS011;2494;51.872;9.688;2023-01-09T14:04:35;0.83;;;0.77;;
4957;SDS011;2494;51.872;9.688;2023-01-09T14:07:26;1.00;;;0.70;;
4957;SDS011;2494;51.872;9.688;2023-01-09T14:10:19;1.00;;;0.70;;
4957;SDS011;2494;51.872;9.688;2023-01-09T14:13:05;1.73;;;0.80;;
4957;SDS011;2494;51.872;9.688;2023-01-09T14:15:59;1.10;;;0.90;;
4957;SDS011;2494;51.872;9.688;2023-01-09T14:18:46;0.87;;;0.70;;
4957;SDS011;2494;51.872;9.688;2023-01-09T14:21:42;0.70;;;0.70;;
4957;SDS011;2494;51.872;9.688;2023-01-09T14:24:30;1.13;;;0.60;;
4957;SDS011;2494;51.872;9.688;2023-01-09T14:30:27;0.90;;;0.80;;
4957;SDS011;2494;51.872;9.688;2023-01-09T14:33:23;0.83;;;0.70;;
4957;SDS011;2494;51.872;9.688;2023-01-09T14:36:13;1.10;;;0.80;;
4957;SDS011;2494;51.872;9.688;2023-01-09T14:39:01;3.60;;;1.80;;
4957;SDS011;2494;51.872;9.688;2023-01-09T14:41:49;3.37;;;1.10;;
4957;SDS011;2494;51.872;9.688;2023-01-09T14:44:49;2.80;;;2.10;;
4957;SDS011;2494;51.872;9.688;2023-01-09T14:47:36;2.87;;;1.97;;
4957;SDS011;2494;51.872;9.688;2023-01-09T14:50:26;25.93;;;15.80;;
4957;SDS011;2494;51.872;9.688;2023-01-09T14:53:12;1.43;;;1.33;;
4957;SDS011;2494;51.872;9.688;2023-01-09T14:56:00;1.70;;;1.30;;
4957;SDS011;2494;51.872;9.688;2023-01-09T14:58:47;0.87;;;0.87;;
4957;SDS011;2494;51.872;9.688;2023-01-09T15:01:35;3.13;;;2.43;;
4957;SDS011;2494;51.872;9.688;2023-01-09T15:04:25;1.17;;;1.03;;
4957;SDS011;2494;51.872;9.688;2023-01-09T15:07:16;2.23;;;1.53;;
4957;SDS011;2494;51.872;9.688;2023-01-09T15:10:04;3.60;;;3.27;;
4957;SDS011;2494;51.872;9.688;2023-01-09T15:12:50;4.90;;;1.80;;
4957;SDS011;2494;51.872;9.688;2023-01-09T15:15:36;2.83;;;1.90;;
4957;SDS011;2494;51.872;9.688;2023-01-09T15:18:22;1.70;;;1.60;;
4957;SDS011;2494;51.872;9.688;2023-01-09T15:21:13;2.00;;;1.60;;
4957;SDS011;2494;51.872;9.688;2023-01-09T15:24:10;1.57;;;0.90;;
4957;SDS011;2494;51.872;9.688;2023-01-09T15:26:55;1.40;;;1.30;;
4957;SDS011;2494;51.872;9.688;2023-01-09T15:29:40;1.97;;;1.40;;
4957;SDS011;2494;51.872;9.688;2023-01-09T15:32:27;2.53;;;1.30;;
4957;SDS011;2494;51.872;9.688;2023-01-09T15:35:13;1.87;;;1.50;;
4957;SDS011;2494;51.872;9.688;2023-01-09T15:37:58;1.57;;;1.47;;
4957;SDS011;2494;51.872;9.688;2023-01-09T15:40:43;1.43;;;1.33;;
4957;SDS011;2494;51.872;9.688;2023-01-09T15:43:38;3.10;;;1.70;;
4957;SDS011;2494;51.872;9.688;2023-01-09T15:46:23;1.40;;;1.30;;
4957;SDS011;2494;51.872;9.688;2023-01-09T15:49:09;2.70;;;1.50;;
4957;SDS011;2494;51.872;9.688;2023-01-09T15:51:55;2.43;;;1.00;;
4957;SDS011;2494;51.872;9.688;2023-01-09T15:54:45;1.53;;;1.43;;
4957;SDS011;2494;51.872;9.688;2023-01-09T15:57:31;1.30;;;1.20;;
4957;SDS011;2494;51.872;9.688;2023-01-09T16:00:25;4.37;;;1.40;;
4957;SDS011;2494;51.872;9.688;2023-01-09T16:03:16;1.87;;;1.37;;
4957;SDS011;2494;51.872;9.688;2023-01-09T16:06:07;1.43;;;1.33;;
4957;SDS011;2494;51.872;9.688;2023-01-09T16:08:53;1.40;;;1.30;;
4957;SDS011;2494;51.872;9.688;2023-01-09T16:11:39;1.20;;;1.10;;
4957;SDS011;2494;51.872;9.688;2023-01-09T16:14:30;5.67;;;1.53;;
4957;SDS011;2494;51.872;9.688;2023-01-09T16:17:17;2.00;;;1.20;;
4957;SDS011;2494;51.872;9.688;2023-01-09T16:20:11;2.27;;;1.60;;
4957;SDS011;2494;51.872;9.688;2023-01-09T16:22:59;3.07;;;1.30;;
4957;SDS011;2494;51.872;9.688;2023-01-09T16:25:46;1.97;;;1.30;;
4957;SDS011;2494;51.872;9.688;2023-01-09T16:28:30;1.67;;;1.57;;
4957;SDS011;2494;51.872;9.688;2023-01-09T16:31:19;4.17;;;1.33;;
4957;SDS011;2494;51.872;9.688;2023-01-09T16:34:09;5.60;;;1.60;;
4957;SDS011;2494;51.872;9.688;2023-01-09T16:36:55;3.20;;;1.80;;
4957;SDS011;2494;51.872;9.688;2023-01-09T16:39:41;2.00;;;1.77;;
4957;SDS011;2494;51.872;9.688;2023-01-09T16:42:27;2.43;;;1.87;;
4957;SDS011;2494;51.872;9.688;2023-01-09T16:45:36;2.07;;;1.90;;
4957;SDS011;2494;51.872;9.688;2023-01-09T16:48:21;2.00;;;1.90;;
4957;SDS011;2494;51.872;9.688;2023-01-09T16:51:10;3.37;;;2.10;;
4957;SDS011;2494;51.872;9.688;2023-01-09T16:53:57;2.23;;;2.07;;
4957;SDS011;2494;51.872;9.688;2023-01-09T16:56:44;2.80;;;2.33;;
4957;SDS011;2494;51.872;9.688;2023-01-09T16:59:31;3.27;;;3.03;;
4957;SDS011;2494;51.872;9.688;2023-01-09T17:02:17;3.40;;;3.03;;
4957;SDS011;2494;51.872;9.688;2023-01-09T17:05:02;3.30;;;3.00;;
4957;SDS011;2494;51.872;9.688;2023-01-09T17:07:47;3.90;;;3.20;;
4957;SDS011;2494;51.872;9.688;2023-01-09T17:10:32;4.83;;;3.93;;
4957;SDS011;2494;51.872;9.688;2023-01-09T17:13:19;3.40;;;3.10;;
4957;SDS011;2494;51.872;9.688;2023-01-09T17:16:04;3.57;;;3.30;;
4957;SDS011;2494;51.872;9.688;2023-01-09T17:18:49;3.50;;;3.30;;
4957;SDS011;2494;51.872;9.688;2023-01-09T17:21:34;3.00;;;2.77;;
4957;SDS011;2494;51.872;9.688;2023-01-09T17:24:22;3.00;;;2.80;;
4957;SDS011;2494;51.872;9.688;2023-01-09T17:27:27;4.87;;;3.43;;
4957;SDS011;2494;51.872;9.688;2023-01-09T17:30:33;4.00;;;3.80;;
4957;SDS011;2494;51.872;9.688;2023-01-09T17:33:18;3.60;;;3.10;;
4957;SDS011;2494;51.872;9.688;2023-01-09T17:36:05;6.00;;;5.47;;
4957;SDS011;2494;51.872;9.688;2023-01-09T17:38:53;6.63;;;6.13;;
4957;SDS011;2494;51.872;9.688;2023-01-09T17:41:38;5.30;;;4.50;;
4957;SDS011;2494;51.872;9.688;2023-01-09T17:44:23;6.37;;;5.70;;
4957;SDS011;2494;51.872;9.688;2023-01-09T17:47:12;7.33;;;6.63;;
4957;SDS011;2494;51.872;9.688;2023-01-09T17:49:58;7.03;;;5.70;;
4957;SDS011;2494;51.872;9.688;2023-01-09T17:52:43;5.93;;;5.43;;
4957;SDS011;2494;51.872;9.688;2023-01-09T17:55:29;6.13;;;5.63;;